Main page
METAR-TAF:

METAR-TAF

Airports :

Chania, Crete, Greece

Chania International Airport

latitude: 35-29N, longitude: 024-07E, elevation: 146 m

Current weather observation

The report was made 27 minutes ago, at 22:50 UTC
Wind 14 kt from the West
Temperature 12°C
Humidity 82%
Pressure 1017 hPa
Visibility 10 km or more
Few clouds at a height of 2000 ft

METAR: LGSA 192250Z 26014KT 9999 FEW020 12/09 Q1017

Time: 01:17 (23:17 UTC)

Forecast

The report was made 6 hours and 17 minutes ago, at 17:00 UTC
Forecast valid from 19 at 18 UTC to 20 at 18 UTC
Wind 20 kt from the West
Visibility 10 km or more
Few clouds at a height of 2000 ft
Scattered clouds at a height of 3000 ft
Becoming
from 20 at 02 UTC to 20 at 04 UTC
Wind 10 kt from the West/Southwest

TAF: LGSA 191700Z 1918/2018 26020KT 9999 FEW020 SCT030 BECMG 2002/2004 24010KT

Weather observations and forecasts of more than 4000 airports (METAR and TAF reports).

The available stations are represented by yellow and red dots on the map.

Hover mouse over dot to see the name of the station.

Then click to see weather observations and forecasts.

To change the map : click on the green buttons with a black cross to zoom in, on the green button with a dash to zoom out, or on the green arrows for adjacent maps.


METAR-TAF: